sensor_id;sensor_type;location;lat;lon;timestamp;pressure;altitude;pressure_sealevel;temperature;humidity
58223;BME280;44020;50.890;15.796;2023-05-22T00:04:49;97762.35;;;12.87;96.23
58223;BME280;44020;50.890;15.796;2023-05-22T00:07:16;97765.21;;;12.83;96.06
58223;BME280;44020;50.890;15.796;2023-05-22T00:15:50;97760.48;;;12.72;95.97
58223;BME280;44020;50.890;15.796;2023-05-22T00:31:00;97750.30;;;12.52;95.59
58223;BME280;44020;50.890;15.796;2023-05-22T00:33:30;97750.64;;;12.50;95.60
58223;BME280;44020;50.890;15.796;2023-05-22T00:36:05;97750.39;;;12.46;95.42
58223;BME280;44020;50.890;15.796;2023-05-22T00:44:37;97747.39;;;12.29;95.15
58223;BME280;44020;50.890;15.796;2023-05-22T00:47:16;97747.24;;;12.27;95.18
58223;BME280;44020;50.890;15.796;2023-05-22T00:49:46;97746.10;;;12.25;94.93
58223;BME280;44020;50.890;15.796;2023-05-22T00:52:14;97746.88;;;12.22;94.82
58223;BME280;44020;50.890;15.796;2023-05-22T00:54:51;97746.70;;;12.20;94.71
58223;BME280;44020;50.890;15.796;2023-05-22T00:57:19;97742.17;;;12.16;94.37
58223;BME280;44020;50.890;15.796;2023-05-22T00:59:50;97745.36;;;12.12;94.31
58223;BME280;44020;50.890;15.796;2023-05-22T01:02:18;97747.20;;;12.06;94.35
58223;BME280;44020;50.890;15.796;2023-05-22T01:04:46;97750.23;;;12.02;94.12
58223;BME280;44020;50.890;15.796;2023-05-22T01:07:29;97747.75;;;11.97;94.18
58223;BME280;44020;50.890;15.796;2023-05-22T01:09:56;97750.50;;;11.93;94.22
58223;BME280;44020;50.890;15.796;2023-05-22T01:34:27;97761.44;;;11.58;93.51
58223;BME280;44020;50.890;15.796;2023-05-22T01:37:04;97760.68;;;11.54;93.54
58223;BME280;44020;50.890;15.796;2023-05-22T01:39:35;97758.90;;;11.52;93.31
58223;BME280;44020;50.890;15.796;2023-05-22T01:42:21;97755.30;;;11.47;93.23
58223;BME280;44020;50.890;15.796;2023-05-22T01:44:48;97756.50;;;11.43;93.18
58223;BME280;44020;50.890;15.796;2023-05-22T01:50:36;97757.75;;;11.35;93.05
58223;BME280;44020;50.890;15.796;2023-05-22T01:53:27;97758.26;;;11.33;93.10
58223;BME280;44020;50.890;15.796;2023-05-22T01:56:21;97759.69;;;11.29;92.97
58223;BME280;44020;50.890;15.796;2023-05-22T01:59:42;97760.54;;;11.24;92.82
58223;BME280;44020;50.890;15.796;2023-05-22T02:02:06;97760.88;;;11.22;93.02
58223;BME280;44020;50.890;15.796;2023-05-22T02:07:55;97763.87;;;11.15;92.58
58223;BME280;44020;50.890;15.796;2023-05-22T02:16:06;97767.13;;;10.99;92.49
58223;BME280;44020;50.890;15.796;2023-05-22T02:18:43;97768.30;;;10.95;92.39
58223;BME280;44020;50.890;15.796;2023-05-22T02:21:21;97772.52;;;10.93;92.60
58223;BME280;44020;50.890;15.796;2023-05-22T02:23:49;97770.73;;;10.88;92.20
58223;BME280;44020;50.890;15.796;2023-05-22T02:29:06;97763.98;;;10.83;92.35
58223;BME280;44020;50.890;15.796;2023-05-22T02:31:44;97761.84;;;10.80;92.37
58223;BME280;44020;50.890;15.796;2023-05-22T02:37:13;97756.55;;;10.75;92.34
58223;BME280;44020;50.890;15.796;2023-05-22T02:42:46;97755.25;;;10.66;92.34
58223;BME280;44020;50.890;15.796;2023-05-22T02:47:54;97754.00;;;10.63;92.62
58223;BME280;44020;50.890;15.796;2023-05-22T02:53:15;97746.41;;;10.65;92.52
58223;BME280;44020;50.890;15.796;2023-05-22T02:55:56;97743.13;;;10.63;92.68
58223;BME280;44020;50.890;15.796;2023-05-22T02:58:32;97741.97;;;10.62;92.53
58223;BME280;44020;50.890;15.796;2023-05-22T03:00:59;97742.82;;;10.62;92.71
58223;BME280;44020;50.890;15.796;2023-05-22T03:15:18;97748.67;;;10.50;92.64
58223;BME280;44020;50.890;15.796;2023-05-22T03:17:57;97748.03;;;10.49;92.55
58223;BME280;44020;50.890;15.796;2023-05-22T03:20:24;97746.30;;;10.46;92.48
58223;BME280;44020;50.890;15.796;2023-05-22T03:22:56;97744.11;;;10.44;92.77
58223;BME280;44020;50.890;15.796;2023-05-22T03:28:14;97744.06;;;10.40;92.62
58223;BME280;44020;50.890;15.796;2023-05-22T03:30:41;97738.81;;;10.39;92.84
58223;BME280;44020;50.890;15.796;2023-05-22T03:33:27;97738.58;;;10.37;92.74
58223;BME280;44020;50.890;15.796;2023-05-22T03:42:11;97735.57;;;10.37;92.80
58223;BME280;44020;50.890;15.796;2023-05-22T03:44:39;97738.92;;;10.35;92.74
58223;BME280;44020;50.890;15.796;2023-05-22T03:47:36;97735.85;;;10.35;93.17
58223;BME280;44020;50.890;15.796;2023-05-22T03:50:06;97738.80;;;10.36;92.98
58223;BME280;44020;50.890;15.796;2023-05-22T03:55:40;97741.05;;;10.37;93.16
58223;BME280;44020;50.890;15.796;2023-05-22T03:58:07;97739.64;;;10.37;92.99
58223;BME280;44020;50.890;15.796;2023-05-22T04:03:48;97735.13;;;10.36;93.88
58223;BME280;44020;50.890;15.796;2023-05-22T04:09:28;97731.89;;;10.39;93.88
58223;BME280;44020;50.890;15.796;2023-05-22T04:12:13;97730.32;;;10.41;93.86
58223;BME280;44020;50.890;15.796;2023-05-22T04:14:46;97727.39;;;10.42;93.88
58223;BME280;44020;50.890;15.796;2023-05-22T04:20:31;97722.75;;;10.45;93.95
58223;BME280;44020;50.890;15.796;2023-05-22T04:23:18;97717.77;;;10.48;93.90
58223;BME280;44020;50.890;15.796;2023-05-22T04:26:06;97717.65;;;10.52;94.07
58223;BME280;44020;50.890;15.796;2023-05-22T04:28:56;97717.44;;;10.60;94.21
58223;BME280;44020;50.890;15.796;2023-05-22T04:34:55;97715.04;;;10.94;94.43
58223;BME280;44020;50.890;15.796;2023-05-22T04:43:29;97714.35;;;10.86;93.84
58223;BME280;44020;50.890;15.796;2023-05-22T04:49:09;97715.41;;;10.89;94.42
58223;BME280;44020;50.890;15.796;2023-05-22T04:51:58;97713.66;;;10.93;94.81
58223;BME280;44020;50.890;15.796;2023-05-22T04:54:36;97715.48;;;10.97;94.85
58223;BME280;44020;50.890;15.796;2023-05-22T04:57:12;97716.48;;;11.01;95.57
58223;BME280;44020;50.890;15.796;2023-05-22T04:59:40;97709.55;;;11.06;95.86
58223;BME280;44020;50.890;15.796;2023-05-22T05:02:13;97707.77;;;11.11;95.79
58223;BME280;44020;50.890;15.796;2023-05-22T05:05:03;97707.14;;;11.15;95.84
58223;BME280;44020;50.890;15.796;2023-05-22T05:07:53;97701.90;;;11.21;96.34
58223;BME280;44020;50.890;15.796;2023-05-22T05:10:20;97703.31;;;11.26;96.46
58223;BME280;44020;50.890;15.796;2023-05-22T05:13:06;97699.58;;;11.31;96.45
58223;BME280;44020;50.890;15.796;2023-05-22T05:19:00;97702.10;;;11.45;97.06
58223;BME280;44020;50.890;15.796;2023-05-22T05:21:38;97702.39;;;11.51;97.38
58223;BME280;44020;50.890;15.796;2023-05-22T05:24:08;97700.53;;;11.56;97.61
58223;BME280;44020;50.890;15.796;2023-05-22T05:26:35;97699.58;;;11.62;98.18
58223;BME280;44020;50.890;15.796;2023-05-22T05:29:03;97697.66;;;11.69;98.64
58223;BME280;44020;50.890;15.796;2023-05-22T05:31:30;97696.27;;;11.75;98.96
58223;BME280;44020;50.890;15.796;2023-05-22T05:34:20;97694.90;;;11.84;99.17
58223;BME280;44020;50.890;15.796;2023-05-22T05:36:50;97695.90;;;11.93;99.80
58223;BME280;44020;50.890;15.796;2023-05-22T05:39:18;97695.18;;;12.00;99.61
58223;BME280;44020;50.890;15.796;2023-05-22T05:45:04;97695.23;;;12.18;100.00
58223;BME280;44020;50.890;15.796;2023-05-22T05:47:30;97690.58;;;12.27;100.00
58223;BME280;44020;50.890;15.796;2023-05-22T05:49:57;97690.77;;;12.36;100.00
58223;BME280;44020;50.890;15.796;2023-05-22T05:52:25;97693.96;;;12.45;100.00
58223;BME280;44020;50.890;15.796;2023-05-22T05:55:04;97691.09;;;12.55;100.00
58223;BME280;44020;50.890;15.796;2023-05-22T05:57:32;97693.89;;;12.64;100.00
58223;BME280;44020;50.890;15.796;2023-05-22T06:00:02;97688.10;;;12.75;100.00
58223;BME280;44020;50.890;15.796;2023-05-22T06:02:37;97686.73;;;12.85;100.00
58223;BME280;44020;50.890;15.796;2023-05-22T06:05:05;97683.92;;;12.96;100.00
58223;BME280;44020;50.890;15.796;2023-05-22T06:07:32;97684.45;;;13.07;100.00
58223;BME280;44020;50.890;15.796;2023-05-22T06:10:00;97687.67;;;13.18;100.00
58223;BME280;44020;50.890;15.796;2023-05-22T06:12:30;97684.71;;;13.28;100.00
58223;BME280;44020;50.890;15.796;2023-05-22T06:14:58;97683.23;;;13.40;100.00
58223;BME280;44020;50.890;15.796;2023-05-22T06:17:35;97681.71;;;13.54;100.00
58223;BME280;44020;50.890;15.796;2023-05-22T06:20:11;97678.20;;;13.68;100.00
58223;BME280;44020;50.890;15.796;2023-05-22T06:22:48;97674.88;;;13.82;100.00
58223;BME280;44020;50.890;15.796;2023-05-22T06:40:02;97669.19;;;14.80;99.76
58223;BME280;44020;50.890;15.796;2023-05-22T06:42:45;97671.33;;;15.03;98.44
58223;BME280;44020;50.890;15.796;2023-05-22T06:45:12;97674.32;;;15.23;96.92
58223;BME280;44020;50.890;15.796;2023-05-22T06:47:39;97673.73;;;15.40;96.41
58223;BME280;44020;50.890;15.796;2023-05-22T06:50:14;97675.07;;;15.54;95.42
58223;BME280;44020;50.890;15.796;2023-05-22T06:52:47;97676.84;;;15.71;93.72
58223;BME280;44020;50.890;15.796;2023-05-22T06:55:15;97674.18;;;15.86;92.20
58223;BME280;44020;50.890;15.796;2023-05-22T06:57:42;97676.21;;;16.01;90.69
58223;BME280;44020;50.890;15.796;2023-05-22T07:00:10;97678.08;;;16.14;90.65
58223;BME280;44020;50.890;15.796;2023-05-22T07:02:40;97679.81;;;16.26;90.03
58223;BME280;44020;50.890;15.796;2023-05-22T07:05:22;97681.55;;;16.38;89.38
58223;BME280;44020;50.890;15.796;2023-05-22T07:08:09;97684.57;;;16.52;87.88
58223;BME280;44020;50.890;15.796;2023-05-22T07:10:36;97682.98;;;16.62;86.40
58223;BME280;44020;50.890;15.796;2023-05-22T07:13:03;97687.11;;;16.74;86.17
58223;BME280;44020;50.890;15.796;2023-05-22T07:15:40;97680.73;;;16.82;85.13
58223;BME280;44020;50.890;15.796;2023-05-22T07:18:37;97679.05;;;16.95;83.76
58223;BME280;44020;50.890;15.796;2023-05-22T07:24:14;97678.63;;;17.21;83.57
58223;BME280;44020;50.890;15.796;2023-05-22T07:26:44;97674.20;;;17.31;82.25
58223;BME280;44020;50.890;15.796;2023-05-22T07:29:15;97674.81;;;17.41;81.95
58223;BME280;44020;50.890;15.796;2023-05-22T07:31:54;97678.90;;;17.51;79.51
58223;BME280;44020;50.890;15.796;2023-05-22T07:34:21;97673.47;;;17.60;78.98
58223;BME280;44020;50.890;15.796;2023-05-22T07:36:51;97677.39;;;17.70;78.40
58223;BME280;44020;50.890;15.796;2023-05-22T07:39:19;97671.52;;;17.78;76.31
58223;BME280;44020;50.890;15.796;2023-05-22T07:41:47;97665.14;;;17.88;76.90
58223;BME280;44020;50.890;15.796;2023-05-22T07:44:20;97664.96;;;18.01;77.72
58223;BME280;44020;50.890;15.796;2023-05-22T07:46:49;97665.33;;;18.11;77.44
58223;BME280;44020;50.890;15.796;2023-05-22T07:49:17;97661.69;;;18.21;76.10
58223;BME280;44020;50.890;15.796;2023-05-22T07:51:53;97661.86;;;18.29;74.63
58223;BME280;44020;50.890;15.796;2023-05-22T07:54:23;97664.46;;;18.36;74.80
58223;BME280;44020;50.890;15.796;2023-05-22T07:56:51;97661.73;;;18.41;73.77
58223;BME280;44020;50.890;15.796;2023-05-22T07:59:21;97660.23;;;18.48;74.45
58223;BME280;44020;50.890;15.796;2023-05-22T08:01:51;97658.66;;;18.57;74.01
58223;BME280;44020;50.890;15.796;2023-05-22T08:04:30;97657.37;;;18.66;73.16
58223;BME280;44020;50.890;15.796;2023-05-22T08:07:17;97657.59;;;18.74;70.61
58223;BME280;44020;50.890;15.796;2023-05-22T08:09:53;97655.77;;;18.82;69.41
58223;BME280;44020;50.890;15.796;2023-05-22T08:12:21;97653.27;;;18.88;69.65
58223;BME280;44020;50.890;15.796;2023-05-22T08:14:48;97655.66;;;18.96;71.61
58223;BME280;44020;50.890;15.796;2023-05-22T08:17:24;97656.70;;;19.02;71.29
58223;BME280;44020;50.890;15.796;2023-05-22T08:20:26;97654.23;;;19.08;70.75
58223;BME280;44020;50.890;15.796;2023-05-22T08:22:54;97652.27;;;19.20;71.41
58223;BME280;44020;50.890;15.796;2023-05-22T08:25:45;97650.90;;;19.31;70.17
58223;BME280;44020;50.890;15.796;2023-05-22T08:28:12;97646.59;;;19.38;69.07
58223;BME280;44020;50.890;15.796;2023-05-22T08:30:42;97642.83;;;19.46;70.30
58223;BME280;44020;50.890;15.796;2023-05-22T08:33:14;97648.15;;;19.52;69.78
58223;BME280;44020;50.890;15.796;2023-05-22T08:35:45;97641.77;;;19.57;69.27
58223;BME280;44020;50.890;15.796;2023-05-22T08:38:13;97650.13;;;19.65;67.80
58223;BME280;44020;50.890;15.796;2023-05-22T08:40:41;97647.70;;;19.69;67.29
58223;BME280;44020;50.890;15.796;2023-05-22T08:43:18;97649.73;;;19.74;67.68
58223;BME280;44020;50.890;15.796;2023-05-22T08:45:47;97646.22;;;19.81;68.65
58223;BME280;44020;50.890;15.796;2023-05-22T08:51:11;97644.91;;;19.93;67.22
58223;BME280;44020;50.890;15.796;2023-05-22T08:53:39;97643.06;;;19.97;66.41
58223;BME280;44020;50.890;15.796;2023-05-22T08:56:07;97639.91;;;20.01;66.76
58223;BME280;44020;50.890;15.796;2023-05-22T08:58:35;97645.21;;;20.05;66.72
58223;BME280;44020;50.890;15.796;2023-05-22T09:01:11;97641.63;;;20.11;68.02
58223;BME280;44020;50.890;15.796;2023-05-22T09:03:42;97644.27;;;20.15;65.35
58223;BME280;44020;50.890;15.796;2023-05-22T09:06:10;97638.63;;;20.17;65.62
58223;BME280;44020;50.890;15.796;2023-05-22T09:08:47;97636.55;;;20.22;64.68
58223;BME280;44020;50.890;15.796;2023-05-22T09:11:14;97637.42;;;20.27;64.61
58223;BME280;44020;50.890;15.796;2023-05-22T09:14:30;97636.58;;;20.34;64.59
58223;BME280;44020;50.890;15.796;2023-05-22T09:16:30;97635.44;;;20.43;65.05
58223;BME280;44020;50.890;15.796;2023-05-22T09:19:00;97638.96;;;20.47;65.05
58223;BME280;44020;50.890;15.796;2023-05-22T09:21:27;97632.05;;;20.51;64.84
58223;BME280;44020;50.890;15.796;2023-05-22T09:24:13;97631.12;;;20.58;64.85
58223;BME280;44020;50.890;15.796;2023-05-22T09:26:52;97637.45;;;20.66;64.88
58223;BME280;44020;50.890;15.796;2023-05-22T09:29:22;97636.42;;;20.71;64.51
58223;BME280;44020;50.890;15.796;2023-05-22T09:31:59;97631.20;;;20.79;63.97
58223;BME280;44020;50.890;15.796;2023-05-22T09:34:29;97635.09;;;20.86;63.60
58223;BME280;44020;50.890;15.796;2023-05-22T09:37:02;97638.38;;;20.94;64.25
58223;BME280;44020;50.890;15.796;2023-05-22T09:42:27;97635.94;;;21.05;64.01
58223;BME280;44020;50.890;15.796;2023-05-22T09:44:54;97638.27;;;21.10;64.33
58223;BME280;44020;50.890;15.796;2023-05-22T09:47:21;97634.62;;;21.17;65.07
58223;BME280;44020;50.890;15.796;2023-05-22T09:49:49;97633.60;;;21.28;63.82
58223;BME280;44020;50.890;15.796;2023-05-22T09:52:16;97627.72;;;21.35;63.63
58223;BME280;44020;50.890;15.796;2023-05-22T09:54:54;97634.11;;;21.40;62.78
58223;BME280;44020;50.890;15.796;2023-05-22T09:57:43;97626.34;;;21.46;62.92
58223;BME280;44020;50.890;15.796;2023-05-22T10:00:13;97628.98;;;21.51;62.39
58223;BME280;44020;50.890;15.796;2023-05-22T10:06:09;97628.40;;;21.53;62.41
58223;BME280;44020;50.890;15.796;2023-05-22T10:08:35;97628.70;;;21.56;63.37
58223;BME280;44020;50.890;15.796;2023-05-22T10:11:07;97629.27;;;21.57;62.84
58223;BME280;44020;50.890;15.796;2023-05-22T10:13:56;97631.14;;;21.59;62.92
58223;BME280;44020;50.890;15.796;2023-05-22T10:16:24;97631.00;;;21.63;63.05
58223;BME280;44020;50.890;15.796;2023-05-22T10:19:04;97631.72;;;21.67;62.42
58223;BME280;44020;50.890;15.796;2023-05-22T10:24:22;97630.20;;;21.74;61.41
58223;BME280;44020;50.890;15.796;2023-05-22T10:27:00;97631.00;;;21.78;60.24
58223;BME280;44020;50.890;15.796;2023-05-22T10:29:32;97628.94;;;21.82;60.96
58223;BME280;44020;50.890;15.796;2023-05-22T10:32:08;97621.02;;;21.88;61.17
58223;BME280;44020;50.890;15.796;2023-05-22T10:34:39;97623.48;;;21.95;60.19
58223;BME280;44020;50.890;15.796;2023-05-22T10:39:48;97618.43;;;22.07;61.31
58223;BME280;44020;50.890;15.796;2023-05-22T10:42:17;97617.33;;;22.10;60.83
58223;BME280;44020;50.890;15.796;2023-05-22T10:44:46;97615.57;;;22.12;61.19
58223;BME280;44020;50.890;15.796;2023-05-22T10:47:21;97612.02;;;22.13;59.67
58223;BME280;44020;50.890;15.796;2023-05-22T10:49:48;97616.20;;;22.13;59.59
58223;BME280;44020;50.890;15.796;2023-05-22T10:52:38;97609.55;;;22.14;58.70
58223;BME280;44020;50.890;15.796;2023-05-22T10:55:08;97609.98;;;22.20;59.41
58223;BME280;44020;50.890;15.796;2023-05-22T10:57:46;97610.91;;;22.28;59.12
58223;BME280;44020;50.890;15.796;2023-05-22T11:00:14;97608.33;;;22.34;58.50
58223;BME280;44020;50.890;15.796;2023-05-22T11:02:44;97608.21;;;22.39;58.98
58223;BME280;44020;50.890;15.796;2023-05-22T11:10:58;97596.31;;;22.59;58.64
58223;BME280;44020;50.890;15.796;2023-05-22T11:13:38;97592.74;;;22.70;58.75
58223;BME280;44020;50.890;15.796;2023-05-22T11:16:09;97592.21;;;22.79;57.33
58223;BME280;44020;50.890;15.796;2023-05-22T11:18:36;97592.31;;;22.81;57.69
58223;BME280;44020;50.890;15.796;2023-05-22T11:21:13;97589.21;;;22.84;57.81
58223;BME280;44020;50.890;15.796;2023-05-22T11:23:40;97589.91;;;22.85;56.75
58223;BME280;44020;50.890;15.796;2023-05-22T11:26:17;97593.92;;;22.88;56.95
58223;BME280;44020;50.890;15.796;2023-05-22T11:28:56;97594.06;;;22.93;55.83
58223;BME280;44020;50.890;15.796;2023-05-22T11:31:25;97591.67;;;22.92;55.75
58223;BME280;44020;50.890;15.796;2023-05-22T11:33:55;97592.98;;;22.93;55.44
58223;BME280;44020;50.890;15.796;2023-05-22T11:36:23;97589.81;;;22.97;55.45
58223;BME280;44020;50.890;15.796;2023-05-22T11:41:38;97589.79;;;23.06;54.62
58223;BME280;44020;50.890;15.796;2023-05-22T11:44:08;97582.71;;;23.09;54.37
58223;BME280;44020;50.890;15.796;2023-05-22T11:46:37;97580.95;;;23.09;54.39
58223;BME280;44020;50.890;15.796;2023-05-22T11:49:13;97589.04;;;23.06;53.98
58223;BME280;44020;50.890;15.796;2023-05-22T11:51:49;97582.95;;;23.07;53.62
58223;BME280;44020;50.890;15.796;2023-05-22T11:54:17;97580.45;;;23.15;53.77
58223;BME280;44020;50.890;15.796;2023-05-22T11:56:48;97579.79;;;23.27;54.02
58223;BME280;44020;50.890;15.796;2023-05-22T11:59:15;97578.04;;;23.35;53.36
58223;BME280;44020;50.890;15.796;2023-05-22T12:01:42;97577.17;;;23.40;53.52
58223;BME280;44020;50.890;15.796;2023-05-22T12:04:09;97575.46;;;23.45;53.50
58223;BME280;44020;50.890;15.796;2023-05-22T12:06:57;97578.35;;;23.50;53.38
58223;BME280;44020;50.890;15.796;2023-05-22T12:12:43;97577.13;;;23.60;53.63
58223;BME280;44020;50.890;15.796;2023-05-22T12:15:24;97578.16;;;23.63;53.97
58223;BME280;44020;50.890;15.796;2023-05-22T12:18:15;97577.84;;;23.60;53.80
58223;BME280;44020;50.890;15.796;2023-05-22T12:20:54;97575.16;;;23.56;52.39
58223;BME280;44020;50.890;15.796;2023-05-22T12:23:26;97573.25;;;23.57;52.86
58223;BME280;44020;50.890;15.796;2023-05-22T12:26:12;97571.00;;;23.59;52.77
58223;BME280;44020;50.890;15.796;2023-05-22T12:32:08;97571.67;;;23.58;51.32
58223;BME280;44020;50.890;15.796;2023-05-22T12:37:32;97563.34;;;23.55;52.40
58223;BME280;44020;50.890;15.796;2023-05-22T12:40:22;97555.62;;;23.57;52.98
58223;BME280;44020;50.890;15.796;2023-05-22T12:42:48;97553.92;;;23.67;52.30
58223;BME280;44020;50.890;15.796;2023-05-22T12:51:09;97554.83;;;23.94;52.02
58223;BME280;44020;50.890;15.796;2023-05-22T12:53:36;97547.73;;;24.03;50.61
58223;BME280;44020;50.890;15.796;2023-05-22T12:56:03;97553.44;;;24.15;51.26
58223;BME280;44020;50.890;15.796;2023-05-22T12:58:31;97552.17;;;24.24;51.03
58223;BME280;44020;50.890;15.796;2023-05-22T13:00:58;97560.10;;;24.32;50.73
58223;BME280;44020;50.890;15.796;2023-05-22T13:03:31;97559.73;;;24.40;49.88
58223;BME280;44020;50.890;15.796;2023-05-22T13:06:19;97557.69;;;24.49;50.59
58223;BME280;44020;50.890;15.796;2023-05-22T13:08:48;97557.54;;;24.58;49.68
58223;BME280;44020;50.890;15.796;2023-05-22T13:11:18;97552.64;;;24.68;48.83
58223;BME280;44020;50.890;15.796;2023-05-22T13:13:49;97552.44;;;24.76;49.13
58223;BME280;44020;50.890;15.796;2023-05-22T13:16:18;97557.59;;;24.85;48.80
58223;BME280;44020;50.890;15.796;2023-05-22T13:18:45;97556.00;;;24.94;48.94
58223;BME280;44020;50.890;15.796;2023-05-22T13:21:21;97548.02;;;25.02;49.35
58223;BME280;44020;50.890;15.796;2023-05-22T13:23:49;97547.65;;;25.06;48.13
58223;BME280;44020;50.890;15.796;2023-05-22T13:26:16;97544.94;;;25.10;49.57
58223;BME280;44020;50.890;15.796;2023-05-22T13:28:46;97539.13;;;25.13;49.14
58223;BME280;44020;50.890;15.796;2023-05-22T13:31:22;97542.84;;;25.11;48.35
58223;BME280;44020;50.890;15.796;2023-05-22T13:33:55;97534.44;;;25.16;46.83
58223;BME280;44020;50.890;15.796;2023-05-22T13:36:22;97530.94;;;25.19;47.37
58223;BME280;44020;50.890;15.796;2023-05-22T13:38:55;97531.36;;;25.27;47.68
58223;BME280;44020;50.890;15.796;2023-05-22T13:41:25;97527.17;;;25.31;47.74
58223;BME280;44020;50.890;15.796;2023-05-22T13:43:52;97524.73;;;25.30;47.23
58223;BME280;44020;50.890;15.796;2023-05-22T13:46:32;97524.98;;;25.32;47.16
58223;BME280;44020;50.890;15.796;2023-05-22T13:51:45;97522.66;;;25.41;46.63
58223;BME280;44020;50.890;15.796;2023-05-22T13:54:21;97516.79;;;25.48;46.66
58223;BME280;44020;50.890;15.796;2023-05-22T13:56:52;97515.34;;;25.55;46.68
58223;BME280;44020;50.890;15.796;2023-05-22T13:59:19;97511.73;;;25.63;46.79
58223;BME280;44020;50.890;15.796;2023-05-22T14:01:47;97510.71;;;25.68;47.11
58223;BME280;44020;50.890;15.796;2023-05-22T14:04:20;97510.25;;;25.64;46.31
58223;BME280;44020;50.890;15.796;2023-05-22T14:06:47;97508.84;;;25.62;46.73
58223;BME280;44020;50.890;15.796;2023-05-22T14:09:14;97505.05;;;25.60;46.56
58223;BME280;44020;50.890;15.796;2023-05-22T14:11:44;97504.84;;;25.62;46.45
58223;BME280;44020;50.890;15.796;2023-05-22T14:14:21;97504.09;;;25.62;46.63
58223;BME280;44020;50.890;15.796;2023-05-22T14:16:50;97508.70;;;25.54;46.55
58223;BME280;44020;50.890;15.796;2023-05-22T14:19:29;97507.26;;;25.49;45.92
58223;BME280;44020;50.890;15.796;2023-05-22T14:22:05;97505.23;;;25.45;45.35
58223;BME280;44020;50.890;15.796;2023-05-22T14:24:32;97503.47;;;25.42;45.20
58223;BME280;44020;50.890;15.796;2023-05-22T14:30:02;97498.23;;;25.25;45.77
58223;BME280;44020;50.890;15.796;2023-05-22T14:32:42;97497.27;;;25.18;45.36
58223;BME280;44020;50.890;15.796;2023-05-22T14:35:29;97493.95;;;25.13;46.56
58223;BME280;44020;50.890;15.796;2023-05-22T14:37:57;97493.52;;;25.09;46.09
58223;BME280;44020;50.890;15.796;2023-05-22T14:40:27;97494.27;;;25.07;45.93
58223;BME280;44020;50.890;15.796;2023-05-22T14:42:58;97494.47;;;25.08;46.09
58223;BME280;44020;50.890;15.796;2023-05-22T14:45:25;97494.33;;;25.05;44.10
58223;BME280;44020;50.890;15.796;2023-05-22T14:48:04;97487.21;;;25.11;45.47
58223;BME280;44020;50.890;15.796;2023-05-22T14:50:33;97486.75;;;25.19;45.28
58223;BME280;44020;50.890;15.796;2023-05-22T14:53:00;97482.34;;;25.30;45.37
58223;BME280;44020;50.890;15.796;2023-05-22T14:55:28;97485.30;;;25.40;44.82
58223;BME280;44020;50.890;15.796;2023-05-22T14:58:03;97484.67;;;25.50;44.70
58223;BME280;44020;50.890;15.796;2023-05-22T15:00:34;97486.23;;;25.58;44.68
58223;BME280;44020;50.890;15.796;2023-05-22T15:03:09;97478.64;;;25.67;44.69
58223;BME280;44020;50.890;15.796;2023-05-22T15:05:37;97479.05;;;25.77;44.99
58223;BME280;44020;50.890;15.796;2023-05-22T15:08:05;97482.01;;;25.82;44.44
58223;BME280;44020;50.890;15.796;2023-05-22T15:10:45;97475.42;;;25.86;44.42
58223;BME280;44020;50.890;15.796;2023-05-22T15:13:21;97479.81;;;25.78;43.57
58223;BME280;44020;50.890;15.796;2023-05-22T15:15:48;97475.90;;;25.72;43.37
58223;BME280;44020;50.890;15.796;2023-05-22T15:18:19;97475.03;;;25.68;43.89
58223;BME280;44020;50.890;15.796;2023-05-22T15:20:46;97471.00;;;25.72;43.97
58223;BME280;44020;50.890;15.796;2023-05-22T15:23:18;97464.48;;;25.80;43.27
58223;BME280;44020;50.890;15.796;2023-05-22T15:25:53;97462.02;;;25.85;43.15
58223;BME280;44020;50.890;15.796;2023-05-22T15:28:32;97458.48;;;25.84;43.39
58223;BME280;44020;50.890;15.796;2023-05-22T15:31:03;97457.19;;;25.84;43.79
58223;BME280;44020;50.890;15.796;2023-05-22T15:36:26;97456.82;;;25.93;43.55
58223;BME280;44020;50.890;15.796;2023-05-22T15:38:57;97452.83;;;25.99;42.71
58223;BME280;44020;50.890;15.796;2023-05-22T15:41:32;97452.95;;;26.01;43.24
58223;BME280;44020;50.890;15.796;2023-05-22T15:43:59;97448.94;;;26.07;43.48
58223;BME280;44020;50.890;15.796;2023-05-22T15:46:27;97444.48;;;26.11;43.27
58223;BME280;44020;50.890;15.796;2023-05-22T15:49:04;97443.54;;;26.20;43.25
58223;BME280;44020;50.890;15.796;2023-05-22T15:51:35;97443.28;;;26.23;43.24
58223;BME280;44020;50.890;15.796;2023-05-22T15:54:05;97442.80;;;26.26;43.45
58223;BME280;44020;50.890;15.796;2023-05-22T15:56:42;97438.17;;;26.28;43.63
58223;BME280;44020;50.890;15.796;2023-05-22T15:59:12;97436.54;;;26.28;43.09
58223;BME280;44020;50.890;15.796;2023-05-22T16:01:59;97434.36;;;26.28;43.33
58223;BME280;44020;50.890;15.796;2023-05-22T16:04:27;97434.86;;;26.31;42.88
58223;BME280;44020;50.890;15.796;2023-05-22T16:06:54;97433.98;;;26.28;43.20
58223;BME280;44020;50.890;15.796;2023-05-22T16:09:22;97431.84;;;26.21;42.92
58223;BME280;44020;50.890;15.796;2023-05-22T16:11:49;97430.17;;;26.20;43.34
58223;BME280;44020;50.890;15.796;2023-05-22T16:14:17;97430.80;;;26.25;42.83
58223;BME280;44020;50.890;15.796;2023-05-22T16:17:06;97424.71;;;26.32;42.21
58223;BME280;44020;50.890;15.796;2023-05-22T16:19:32;97423.16;;;26.43;43.06
58223;BME280;44020;50.890;15.796;2023-05-22T16:22:00;97425.05;;;26.53;43.43
58223;BME280;44020;50.890;15.796;2023-05-22T16:24:27;97427.59;;;26.61;42.59
58223;BME280;44020;50.890;15.796;2023-05-22T16:26:55;97423.67;;;26.60;43.04
58223;BME280;44020;50.890;15.796;2023-05-22T16:29:22;97421.63;;;26.49;43.13
58223;BME280;44020;50.890;15.796;2023-05-22T16:31:59;97428.14;;;26.37;43.53
58223;BME280;44020;50.890;15.796;2023-05-22T16:34:26;97426.39;;;26.31;43.32